Time;durP1;ratioP1;P1;durP2;ratioP2;P2;SDS_P1;SDS_P2;PMS_P1;PMS_P2;Temp;Humidity;BMP_temperature;BMP_pressure;BME280_temperature;BME280_humidity;BME280_pressure;Samples;Min_cycle;Max_cycle;Signal;HPM_P1;HPM_P2
2021/07/10 00:00:39;;;;;;;14.83;9.30;;;;;;;21.12;75.47;97821.30;1691274;83;21003;-73
2021/07/10 00:03:09;;;;;;;12.98;9.43;;;;;;;21.00;76.02;97824.44;1684095;85;21126;-73
2021/07/10 00:05:35;;;;;;;13.43;8.83;;;;;;;20.90;76.65;97822.94;1684341;85;21015;-73
2021/07/10 00:08:02;;;;;;;13.20;9.20;;;;;;;20.87;76.92;97819.59;1684244;85;21476;-73
2021/07/10 00:10:29;;;;;;;10.25;8.40;;;;;;;20.80;76.86;97806.56;1706902;83;20991;-73
2021/07/10 00:12:55;;;;;;;11.57;9.60;;;;;;;20.79;76.99;97814.75;1717141;83;21028;-73
2021/07/10 00:15:25;;;;;;;13.80;9.40;;;;;;;20.79;75.87;97810.23;1711051;83;21073;-74
2021/07/10 00:17:53;;;;;;;10.72;9.33;;;;;;;20.83;75.60;97810.38;1698068;83;20997;-74
2021/07/10 00:20:21;;;;;;;13.03;9.45;;;;;;;20.86;77.20;97803.94;1718664;83;21516;-74
2021/07/10 00:22:48;;;;;;;10.28;9.20;;;;;;;20.88;76.30;97806.52;1718582;83;21402;-73
2021/07/10 00:25:17;;;;;;;13.72;8.75;;;;;;;20.85;77.47;97798.16;1718566;83;21005;-74
2021/07/10 00:27:46;;;;;;;10.90;8.68;;;;;;;20.82;76.68;97797.90;1718720;83;20994;-73
2021/07/10 00:30:17;;;;;;;10.90;9.53;;;;;;;20.84;77.50;97817.95;1713097;83;20977;-74
2021/07/10 00:32:45;;;;;;;13.22;8.83;;;;;;;20.81;78.20;97825.78;1716574;83;21014;-74
2021/07/10 00:35:12;;;;;;;10.55;9.20;;;;;;;20.82;77.19;97823.95;1711020;83;21466;-74
2021/07/10 00:37:40;;;;;;;12.05;8.43;;;;;;;20.84;76.45;97812.09;1700051;84;21010;-73
2021/07/10 00:40:08;;;;;;;12.15;8.88;;;;;;;20.90;77.00;97808.59;1700162;84;21007;-73
2021/07/10 00:42:36;;;;;;;10.65;8.73;;;;;;;20.91;78.59;97811.66;1700256;84;21022;-74
2021/07/10 00:45:06;;;;;;;10.50;8.78;;;;;;;20.94;76.84;97807.39;1718364;83;21004;-74
2021/07/10 00:47:33;;;;;;;10.38;9.03;;;;;;;21.00;76.14;97810.12;1718867;83;21001;-74
2021/07/10 00:50:00;;;;;;;10.45;8.53;;;;;;;21.04;76.52;97799.46;1719014;83;21008;-74
2021/07/10 00:52:26;;;;;;;13.53;10.72;;;;;;;21.08;75.94;97804.52;1718820;83;21037;-74
2021/07/10 00:54:53;;;;;;;14.95;9.25;;;;;;;21.15;75.92;97804.05;1718902;83;20962;-74
2021/07/10 00:57:21;;;;;;;11.10;8.45;;;;;;;21.13;76.25;97797.42;1718856;83;21020;-74
2021/07/10 00:59:47;;;;;;;10.93;7.92;;;;;;;21.13;76.50;97804.16;1718641;83;21046;-74
2021/07/10 01:02:15;;;;;;;10.58;7.47;;;;;;;21.16;76.73;97799.02;1718736;83;21410;-73
2021/07/10 01:04:42;;;;;;;9.08;7.47;;;;;;;21.21;75.80;97799.52;1718986;83;21028;-73
2021/07/10 01:07:08;;;;;;;12.58;8.53;;;;;;;21.26;76.05;97800.03;1718919;83;21514;-73
2021/07/10 01:09:35;;;;;;;11.18;7.60;;;;;;;21.29;76.11;97802.50;1719073;83;20994;-73
2021/07/10 01:12:02;;;;;;;10.78;8.00;;;;;;;21.34;76.15;97793.56;1718826;83;21068;-73
2021/07/10 01:14:29;;;;;;;9.83;7.40;;;;;;;21.34;76.17;97797.61;1718737;83;21029;-73
2021/07/10 01:16:56;;;;;;;8.90;7.80;;;;;;;21.36;75.83;97794.32;1701090;83;21030;-72
2021/07/10 01:19:29;;;;;;;12.05;7.50;;;;;;;21.40;75.77;97790.02;1718665;83;21054;-73
2021/07/10 01:21:57;;;;;;;11.55;8.65;;;;;;;21.46;76.01;97809.75;1719087;83;20970;-73
2021/07/10 01:24:25;;;;;;;10.38;8.53;;;;;;;21.45;76.17;97802.17;1708111;83;21038;-73
2021/07/10 01:26:52;;;;;;;9.53;7.87;;;;;;;21.41;76.75;97803.86;1700174;84;21025;-73
2021/07/10 01:29:19;;;;;;;10.82;8.08;;;;;;;21.36;76.75;97798.84;1701687;83;21090;-72
2021/07/10 01:31:48;;;;;;;17.25;8.90;;;;;;;21.39;76.33;97789.66;1718985;83;20994;-73
2021/07/10 01:34:15;;;;;;;9.88;8.73;;;;;;;21.35;76.35;97791.74;1718722;83;21019;-73
2021/07/10 01:36:42;;;;;;;11.85;9.13;;;;;;;21.34;76.72;97798.95;1718991;83;21046;-73
2021/07/10 01:39:08;;;;;;;12.37;8.63;;;;;;;21.31;76.33;97795.17;1713372;83;21052;-73
2021/07/10 01:41:49;;;;;;;11.45;8.83;;;;;;;21.22;77.43;97799.41;1718864;83;21110;-73
2021/07/10 01:44:15;;;;;;;12.28;8.60;;;;;;;21.19;76.18;97794.75;1718963;83;21013;-72
2021/07/10 01:46:42;;;;;;;13.60;9.28;;;;;;;21.16;75.90;97794.97;1718725;83;21060;-72
2021/07/10 01:49:08;;;;;;;12.65;9.85;;;;;;;21.15;75.82;97800.00;1718743;83;21052;-73
2021/07/10 01:51:35;;;;;;;16.00;9.48;;;;;;;21.08;76.70;97787.48;1718949;83;21013;-73
2021/07/10 01:54:03;;;;;;;11.33;9.45;;;;;;;21.02;75.96;97787.48;1718899;83;20986;-73
2021/07/10 01:56:29;;;;;;;10.93;8.75;;;;;;;21.00;76.03;97792.62;1718761;83;21001;-73
2021/07/10 01:58:56;;;;;;;13.48;9.25;;;;;;;20.97;76.07;97773.00;1718845;83;21569;-73
2021/07/10 02:01:23;;;;;;;9.93;8.83;;;;;;;20.93;75.94;97778.23;1718973;83;21049;-73
2021/07/10 02:03:51;;;;;;;10.38;8.85;;;;;;;20.91;76.04;97779.33;1718896;83;21013;-73
2021/07/10 02:06:18;;;;;;;11.05;9.20;;;;;;;20.89;76.11;97779.95;1718757;83;21449;-73
2021/07/10 02:08:45;;;;;;;15.00;9.40;;;;;;;20.83;76.25;97786.62;1718642;83;21472;-72
2021/07/10 02:11:12;;;;;;;12.35;10.20;;;;;;;20.75;77.32;97784.50;1718776;83;21487;-72
2021/07/10 02:13:39;;;;;;;15.90;9.83;;;;;;;20.68;78.20;97798.91;1718817;83;21066;-72
2021/07/10 02:16:06;;;;;;;13.58;9.58;;;;;;;20.59;78.80;97796.90;1717038;83;21064;-72
2021/07/10 02:18:33;;;;;;;12.85;9.40;;;;;;;20.51;79.81;97796.13;1713529;82;21064;-72
2021/07/10 02:21:00;;;;;;;12.88;8.85;;;;;;;20.46;79.81;97788.03;1714245;82;20997;-73
2021/07/10 02:23:29;;;;;;;13.83;9.50;;;;;;;20.42;78.76;97790.06;1715204;84;21037;-72
2021/07/10 02:25:55;;;;;;;12.95;9.73;;;;;;;20.41;78.99;97789.70;1713612;84;21025;-72
2021/07/10 02:28:21;;;;;;;11.12;9.90;;;;;;;20.42;78.16;97789.59;1714913;82;21068;-72
2021/07/10 02:30:49;;;;;;;11.10;8.98;;;;;;;20.43;78.12;97794.50;1710060;82;21080;-72
2021/07/10 02:33:16;;;;;;;12.23;9.15;;;;;;;20.42;77.63;97799.02;1693543;85;21056;-72
2021/07/10 02:35:45;;;;;;;14.38;9.15;;;;;;;20.45;78.03;97800.62;1708137;84;20985;-73
2021/07/10 02:38:13;;;;;;;9.33;8.33;;;;;;;20.44;78.42;97803.78;1700456;82;21005;-72
2021/07/10 02:40:41;;;;;;;12.70;9.18;;;;;;;20.44;79.55;97807.83;1715678;84;21089;-72
2021/07/10 02:43:07;;;;;;;9.30;8.40;;;;;;;20.46;79.51;97813.61;1715884;84;21009;-72
2021/07/10 02:45:35;;;;;;;13.53;8.73;;;;;;;20.43;81.01;97810.66;1715924;84;21005;-73
2021/07/10 02:48:02;;;;;;;10.40;8.23;;;;;;;20.43;80.35;97812.00;1714010;83;21001;-72
2021/07/10 02:50:28;;;;;;;9.53;8.43;;;;;;;20.46;80.00;97821.17;1713404;84;21060;-72
2021/07/10 02:52:55;;;;;;;13.68;8.10;;;;;;;20.52;79.44;97815.33;1713435;84;21016;-72
2021/07/10 02:55:24;;;;;;;10.55;7.70;;;;;;;20.57;79.62;97806.94;1723760;82;21025;-72
2021/07/10 02:57:50;;;;;;;10.85;8.15;;;;;;;20.61;79.15;97805.73;1742880;82;20990;-72
2021/07/10 03:00:21;;;;;;;9.90;7.55;;;;;;;20.65;78.96;97807.23;1743012;82;21041;-72
2021/07/10 03:02:47;;;;;;;9.05;7.47;;;;;;;20.65;78.86;97803.20;1743062;82;21427;-72
2021/07/10 03:05:14;;;;;;;9.43;7.60;;;;;;;20.64;79.02;97793.88;1743011;82;20962;-73
2021/07/10 03:07:43;;;;;;;12.20;8.25;;;;;;;20.60;79.67;97791.91;1742419;82;21017;-72
2021/07/10 03:10:15;;;;;;;12.00;8.65;;;;;;;20.60;79.55;97791.04;1718242;82;21443;-72
2021/07/10 03:12:42;;;;;;;11.85;8.28;;;;;;;20.54;79.54;97795.91;1718010;82;21021;-72
2021/07/10 03:15:13;;;;;;;11.15;8.18;;;;;;;20.53;79.42;97798.23;1713404;84;21033;-73
2021/07/10 03:17:40;;;;;;;11.18;8.65;;;;;;;20.51;79.58;97797.97;1719846;83;21035;-72
2021/07/10 03:20:08;;;;;;;10.15;9.05;;;;;;;20.49;78.85;97794.05;1721007;83;21546;-72
2021/07/10 03:22:35;;;;;;;10.75;8.93;;;;;;;20.45;78.89;97797.92;1721112;83;21008;-72
2021/07/10 03:25:05;;;;;;;11.00;9.05;;;;;;;20.40;78.89;97787.98;1721180;83;21004;-73
2021/07/10 03:27:31;;;;;;;12.65;8.35;;;;;;;20.39;78.81;97787.12;1720445;83;20996;-73
2021/07/10 03:29:58;;;;;;;17.98;15.05;;;;;;;20.41;78.68;97791.05;1737256;82;21017;-73
2021/07/10 03:32:24;;;;;;;11.05;9.33;;;;;;;20.40;78.66;97792.90;1715327;83;21419;-73
2021/07/10 03:34:51;;;;;;;14.65;9.43;;;;;;;20.37;78.83;97789.07;1750902;82;21008;-73
2021/07/10 03:37:17;;;;;;;9.85;8.85;;;;;;;20.35;79.26;97790.16;1728563;82;20953;-72
2021/07/10 03:39:44;;;;;;;11.73;8.78;;;;;;;20.33;80.04;97792.95;1720836;83;21029;-72
2021/07/10 03:42:11;;;;;;;12.28;8.53;;;;;;;20.30;79.73;97802.11;1721258;83;21135;-72
2021/07/10 03:44:37;;;;;;;10.05;8.83;;;;;;;20.26;79.26;97798.42;1721189;83;21032;-72
2021/07/10 03:47:04;;;;;;;8.90;8.00;;;;;;;20.24;79.54;97797.66;1721605;82;20945;-72
2021/07/10 03:49:31;;;;;;;10.50;8.93;;;;;;;20.21;79.28;97799.25;1721238;83;22248;-73
2021/07/10 03:51:57;;;;;;;10.58;8.93;;;;;;;20.23;79.68;97798.64;1721141;83;21359;-72
2021/07/10 03:54:24;;;;;;;14.15;9.38;;;;;;;20.23;79.76;97798.16;1721026;83;21438;-72
2021/07/10 03:56:50;;;;;;;11.97;9.55;;;;;;;20.23;79.62;97799.52;1721213;83;21474;-73
2021/07/10 03:59:17;;;;;;;10.88;9.68;;;;;;;20.22;80.03;97800.45;1721259;83;20982;-72
2021/07/10 04:01:45;;;;;;;10.50;9.05;;;;;;;20.26;79.56;97800.61;1720990;83;21101;-73
2021/07/10 04:04:15;;;;;;;11.50;9.00;;;;;;;20.27;79.62;97803.67;1727887;82;21168;-72
2021/07/10 04:06:42;;;;;;;11.83;9.30;;;;;;;20.30;79.73;97806.15;1748748;82;21446;-73
2021/07/10 04:09:09;;;;;;;11.70;9.50;;;;;;;20.30;79.90;97802.59;1750759;82;21005;-73
2021/07/10 04:11:39;;;;;;;10.82;9.00;;;;;;;20.31;79.62;97797.60;1721619;82;21029;-72
2021/07/10 04:14:06;;;;;;;12.07;9.23;;;;;;;20.35;81.30;97804.48;1721101;82;21889;-73
2021/07/10 04:16:33;;;;;;;10.30;9.30;;;;;;;20.40;81.26;97799.63;1750596;82;21099;-72
2021/07/10 04:19:00;;;;;;;10.25;8.68;;;;;;;20.46;80.63;97794.26;1752466;82;21048;-74
2021/07/10 04:21:26;;;;;;;12.55;8.78;;;;;;;20.54;79.88;97795.91;1754123;82;21597;-74
2021/07/10 04:23:53;;;;;;;9.95;8.28;;;;;;;20.64;79.73;97791.19;1753934;82;20961;-74
2021/07/10 04:26:19;;;;;;;9.83;8.25;;;;;;;20.73;79.58;97785.59;1754178;82;20989;-75
2021/07/10 04:28:46;;;;;;;8.75;7.85;;;;;;;20.82;79.34;97787.12;1754192;82;21012;-75
2021/07/10 04:31:13;;;;;;;10.98;8.15;;;;;;;20.92;78.93;97790.00;1754393;82;21016;-76
2021/07/10 04:33:39;;;;;;;10.72;8.15;;;;;;;21.00;78.91;97786.72;1754543;82;21024;-75
2021/07/10 04:36:06;;;;;;;11.68;7.62;;;;;;;21.06;78.48;97788.94;1725309;81;20969;-75
2021/07/10 04:38:37;;;;;;;13.13;8.13;;;;;;;21.09;78.01;97778.41;1721799;83;21048;-75
2021/07/10 04:41:01;;;;;;;8.38;7.45;;;;;;;21.16;77.95;97784.20;1686825;85;21442;-75
2021/07/10 04:43:27;;;;;;;8.88;7.72;;;;;;;21.22;77.73;97777.84;1674053;86;21054;-74
2021/07/10 04:45:53;;;;;;;10.65;8.43;;;;;;;21.28;77.51;97777.88;1732769;82;20985;-75
2021/07/10 04:48:20;;;;;;;11.05;8.08;;;;;;;21.32;76.91;97769.92;1732614;82;21048;-74
2021/07/10 04:50:46;;;;;;;15.08;8.50;;;;;;;21.35;76.85;97774.22;1719853;83;21040;-74
2021/07/10 04:53:13;;;;;;;9.60;8.20;;;;;;;21.42;76.71;97771.91;1720906;83;21380;-75
2021/07/10 04:55:39;;;;;;;11.43;9.03;;;;;;;21.48;76.41;97775.47;1721205;83;20990;-75
2021/07/10 04:58:06;;;;;;;10.95;8.80;;;;;;;21.55;76.41;97775.84;1721031;83;21026;-75
2021/07/10 05:00:33;;;;;;;11.70;8.70;;;;;;;21.56;75.97;97768.99;1735173;82;20965;-75
2021/07/10 05:03:02;;;;;;;13.65;9.40;;;;;;;21.58;76.04;97775.11;1743524;82;21005;-75
2021/07/10 05:05:28;;;;;;;12.28;8.83;;;;;;;21.61;75.81;97773.53;1721634;82;21493;-76
2021/07/10 05:07:55;;;;;;;10.53;9.38;;;;;;;21.65;75.79;97771.44;1723645;82;20965;-75
2021/07/10 05:10:21;;;;;;;11.33;8.43;;;;;;;21.69;75.59;97776.97;1721018;83;21095;-76
2021/07/10 05:12:48;;;;;;;9.48;8.30;;;;;;;21.73;75.61;97766.82;1720956;83;21099;-75
2021/07/10 05:15:17;;;;;;;10.90;8.25;;;;;;;21.73;75.65;97763.64;1735512;82;21445;-75
2021/07/10 05:17:43;;;;;;;11.93;8.83;;;;;;;21.76;75.48;97769.28;1711839;83;21009;-75
2021/07/10 05:20:10;;;;;;;10.55;9.20;;;;;;;;;;1721964;82;21055;-75
2021/07/10 05:22:37;;;;;;;10.40;8.85;;;;;;;21.82;75.07;97769.27;1721179;83;21060;-73
2021/07/10 05:25:05;;;;;;;13.22;9.23;;;;;;;21.86;74.82;97773.44;1721158;83;20993;-73
2021/07/10 05:27:31;;;;;;;13.18;10.60;;;;;;;21.89;74.63;97779.44;1721184;82;21013;-74
2021/07/10 05:29:57;;;;;;;16.97;14.68;;;;;;;21.96;74.20;97775.77;1721139;83;21064;-75
2021/07/10 05:32:24;;;;;;;10.78;9.35;;;;;;;22.03;74.11;97773.44;1721169;83;21410;-74
2021/07/10 05:34:50;;;;;;;9.85;8.85;;;;;;;22.08;73.89;97771.22;1734364;82;20993;-75
2021/07/10 05:37:18;;;;;;;10.60;8.58;;;;;;;22.15;73.77;97777.86;1721429;82;21024;-74
2021/07/10 05:39:44;;;;;;;13.30;8.70;;;;;;;22.19;73.38;97775.76;1721188;83;21092;-74
2021/07/10 05:42:11;;;;;;;9.95;8.95;;;;;;;22.26;73.34;97780.17;1721845;82;21021;-75
2021/07/10 05:44:37;;;;;;;9.18;8.25;;;;;;;22.32;73.14;97774.27;1721258;83;21525;-75
2021/07/10 05:47:05;;;;;;;11.03;8.48;;;;;;;22.38;72.91;97772.41;1721199;83;20996;-74
2021/07/10 05:49:31;;;;;;;12.63;10.00;;;;;;;22.46;72.65;97774.47;1721108;83;21004;-75
2021/07/10 05:51:58;;;;;;;10.15;8.63;;;;;;;22.54;72.49;97782.84;1721222;83;21013;-74
2021/07/10 05:54:24;;;;;;;9.35;8.48;;;;;;;22.62;72.31;97774.61;1721144;83;20966;-74
2021/07/10 05:56:51;;;;;;;9.63;8.63;;;;;;;22.73;72.24;97776.39;1729487;82;21021;-75
2021/07/10 05:59:17;;;;;;;9.85;8.70;;;;;;;22.84;72.02;97780.91;1733395;82;21025;-75
2021/07/10 06:01:44;;;;;;;9.25;8.35;;;;;;;22.92;71.83;97781.97;1743685;82;20977;-75
2021/07/10 06:04:10;;;;;;;11.65;8.90;;;;;;;23.01;71.28;97787.59;1751000;82;21450;-75
2021/07/10 06:06:37;;;;;;;10.28;8.00;;;;;;;23.08;71.08;97777.48;1739723;82;21446;-75
2021/07/10 06:09:04;;;;;;;13.03;8.80;;;;;;;23.19;70.18;97787.88;1721707;82;21037;-75
2021/07/10 06:11:30;;;;;;;10.65;8.05;;;;;;;23.29;68.41;97782.55;1723270;82;21029;-76
2021/07/10 06:13:56;;;;;;;9.98;7.47;;;;;;;23.37;68.77;97780.57;1719132;82;21028;-74
2021/07/10 06:16:23;;;;;;;11.73;8.15;;;;;;;23.47;68.20;97782.84;1721144;83;21001;-74
2021/07/10 06:18:50;;;;;;;8.70;7.83;;;;;;;23.58;68.91;97780.05;1726450;83;20989;-74
2021/07/10 06:21:16;;;;;;;9.38;8.50;;;;;;;23.72;68.87;97782.05;1734386;82;21056;-75
2021/07/10 06:23:45;;;;;;;9.78;8.23;;;;;;;23.84;68.58;97781.47;1745616;82;21443;-75
2021/07/10 06:26:11;;;;;;;10.28;8.43;;;;;;;23.95;68.40;97782.73;1726635;83;21025;-75
2021/07/10 06:28:38;;;;;;;9.30;8.43;;;;;;;24.11;68.38;97781.39;1726578;83;21035;-74
2021/07/10 06:31:05;;;;;;;11.10;8.43;;;;;;;24.22;67.38;97773.67;1726719;82;21077;-75
2021/07/10 06:33:31;;;;;;;8.80;7.95;;;;;;;24.26;67.45;97781.88;1726541;83;21080;-75
2021/07/10 06:35:58;;;;;;;10.72;8.98;;;;;;;24.32;67.18;97780.45;1734500;82;21451;-75
2021/07/10 06:38:24;;;;;;;17.70;14.50;;;;;;;24.31;65.39;97782.32;1744507;82;21042;-75
2021/07/10 06:40:50;;;;;;;12.50;9.45;;;;;;;24.35;66.00;97782.41;1737689;82;21032;-75
2021/07/10 06:43:17;;;;;;;11.80;9.05;;;;;;;24.41;65.96;97781.49;1726523;83;21441;-75
2021/07/10 06:45:43;;;;;;;13.80;10.32;;;;;;;24.43;65.88;97778.13;1726709;83;21423;-75
2021/07/10 06:48:10;;;;;;;14.40;10.95;;;;;;;24.49;65.40;97784.34;1726436;83;20989;-75
2021/07/10 06:50:36;;;;;;;11.35;9.28;;;;;;;24.52;64.79;97780.01;1726565;83;20980;-75
2021/07/10 06:53:03;;;;;;;15.25;9.63;;;;;;;24.55;64.80;97777.52;1726486;83;21446;-75
2021/07/10 06:55:30;;;;;;;14.40;9.85;;;;;;;24.62;65.02;97783.59;1726606;83;21047;-74
2021/07/10 06:57:56;;;;;;;12.18;10.05;;;;;;;24.68;64.14;97781.31;1732848;82;21250;-75
2021/07/10 07:00:23;;;;;;;10.60;9.20;;;;;;;24.73;64.35;97777.20;1738217;81;21418;-74
2021/07/10 07:02:49;;;;;;;11.73;8.90;;;;;;;24.81;64.36;97781.03;1736161;82;20981;-75
2021/07/10 07:05:16;;;;;;;11.22;10.10;;;;;;;24.88;63.79;97770.03;1736265;82;20992;-75
2021/07/10 07:07:44;;;;;;;12.35;9.28;;;;;;;24.94;63.47;97773.52;1739834;82;21391;-75
2021/07/10 07:10:12;;;;;;;12.90;8.85;;;;;;;25.00;63.09;97770.23;1735866;82;20976;-76
2021/07/10 07:12:41;;;;;;;10.72;8.90;;;;;;;25.07;62.29;97778.66;1743072;82;21000;-76
2021/07/10 07:15:10;;;;;;;10.70;8.33;;;;;;;25.15;62.22;97779.30;1734676;82;21000;-76
2021/07/10 07:17:37;;;;;;;11.30;8.68;;;;;;;25.21;59.10;97778.73;1731010;82;20989;-76
2021/07/10 07:20:11;;;;;;;9.68;8.75;;;;;;;25.28;60.72;97774.44;1724246;82;20981;-76
2021/07/10 07:22:37;;;;;;;11.48;8.83;;;;;;;25.52;60.54;97763.62;1724697;82;21041;-76
2021/07/10 07:25:06;;;;;;;10.35;8.60;;;;;;;25.72;60.20;97769.02;1725119;82;20977;-76
2021/07/10 07:27:32;;;;;;;10.80;9.33;;;;;;;25.72;60.20;97769.02;1724438;82;21039;-74
2021/07/10 07:29:59;;;;;;;10.28;8.75;;;;;;;25.87;60.23;97769.41;1718767;82;20977;-74
2021/07/10 07:32:27;;;;;;;11.78;9.40;;;;;;;25.99;59.49;97771.41;1715677;84;21069;-75
2021/07/10 07:34:53;;;;;;;12.23;9.80;;;;;;;26.09;59.22;97768.17;1718674;82;21624;-74
2021/07/10 07:37:20;;;;;;;14.45;9.23;;;;;;;26.19;58.01;97774.03;1698383;84;21024;-74
2021/07/10 07:39:49;;;;;;;10.45;9.43;;;;;;;26.29;56.96;97769.95;1679064;84;21164;-77
2021/07/10 07:42:17;;;;;;;10.13;9.10;;;;;;;26.41;57.43;97775.52;1666046;85;21114;-77
2021/07/10 07:44:44;;;;;;;12.13;9.48;;;;;;;26.54;56.79;97771.59;1672827;85;21407;-77
2021/07/10 07:47:14;;;;;;;13.22;9.50;;;;;;;26.53;55.04;97773.97;1695721;84;21491;-76
2021/07/10 07:49:42;;;;;;;14.10;9.30;;;;;;;26.53;55.41;97770.73;1654669;87;21014;-77
2021/07/10 07:52:08;;;;;;;12.47;9.58;;;;;;;26.59;56.26;97767.91;1713385;84;21055;-76
2021/07/10 07:54:36;;;;;;;10.25;9.15;;;;;;;26.65;56.31;97765.93;1713406;84;21042;-76
2021/07/10 07:57:04;;;;;;;12.98;9.60;;;;;;;26.71;55.96;97766.70;1713326;84;21062;-75
2021/07/10 07:59:31;;;;;;;16.90;9.53;;;;;;;26.73;54.87;97761.95;1713343;84;21420;-75
2021/07/10 08:01:58;;;;;;;10.60;9.40;;;;;;;26.80;55.62;97762.19;1713465;84;21089;-76
2021/07/10 08:04:24;;;;;;;11.12;9.13;;;;;;;26.89;55.21;97760.39;1714010;82;21444;-76
2021/07/10 08:06:51;;;;;;;9.68;8.68;;;;;;;26.94;55.28;97758.61;1736624;82;20982;-76
2021/07/10 08:09:17;;;;;;;13.28;9.48;;;;;;;27.01;55.55;97756.97;1707467;84;21037;-76
2021/07/10 08:11:44;;;;;;;12.53;9.33;;;;;;;27.08;55.51;97753.12;1742850;82;21084;-76
2021/07/10 08:14:12;;;;;;;16.23;9.45;;;;;;;27.11;55.51;97748.20;1707184;84;21010;-77
2021/07/10 08:16:40;;;;;;;10.48;9.40;;;;;;;27.15;55.42;97756.41;1706558;83;21076;-76
2021/07/10 08:19:06;;;;;;;11.90;9.48;;;;;;;27.13;55.25;97747.56;1682105;85;21546;-76
2021/07/10 08:21:33;;;;;;;10.18;9.18;;;;;;;27.17;54.92;97752.17;1674876;85;21053;-76
2021/07/10 08:24:00;;;;;;;12.40;8.93;;;;;;;27.20;55.16;97748.28;1722424;82;21008;-76
2021/07/10 08:26:29;;;;;;;10.93;9.35;;;;;;;27.26;55.44;97749.00;1718716;82;21069;-74
2021/07/10 08:28:56;;;;;;;10.72;9.18;;;;;;;27.34;55.39;97746.84;1714135;82;21388;-74
2021/07/10 08:31:23;;;;;;;29.20;24.07;;;;;;;27.41;55.53;97743.33;1727995;82;21033;-74
2021/07/10 08:33:49;;;;;;;13.68;12.30;;;;;;;27.50;55.46;97748.84;1725583;82;21013;-74
2021/07/10 08:36:16;;;;;;;11.73;9.23;;;;;;;27.54;55.01;97739.34;1715616;82;21014;-74
2021/07/10 08:38:42;;;;;;;9.95;8.95;;;;;;;27.58;55.28;97744.82;1713610;82;21038;-74
2021/07/10 08:41:11;;;;;;;10.85;9.83;;;;;;;27.58;54.65;97745.31;1726542;82;21716;-74
2021/07/10 08:43:40;;;;;;;12.45;8.83;;;;;;;27.46;53.01;97747.45;1724673;82;21014;-74
2021/07/10 08:46:07;;;;;;;10.82;9.73;;;;;;;27.48;54.28;97736.75;1713600;82;21038;-76
2021/07/10 08:48:35;;;;;;;10.63;9.65;;;;;;;27.55;54.33;97736.97;1713460;84;21074;-75
2021/07/10 08:51:05;;;;;;;12.45;9.73;;;;;;;27.52;53.78;97736.78;1721920;82;21001;-76
2021/07/10 08:53:33;;;;;;;14.35;9.63;;;;;;;27.50;54.17;97737.46;1717748;82;21031;-76
2021/07/10 08:56:00;;;;;;;13.80;9.15;;;;;;;27.51;54.41;97738.30;1722279;81;21022;-76
2021/07/10 08:58:27;;;;;;;10.60;8.80;;;;;;;27.56;54.51;97736.47;1726583;82;20965;-76
2021/07/10 09:00:55;;;;;;;15.55;12.13;;;;;;;27.60;54.77;97733.28;1731563;82;21045;-77
2021/07/10 09:03:21;;;;;;;24.18;20.20;;;;;;;27.67;54.63;97732.13;1716995;82;21109;-78
2021/07/10 09:05:48;;;;;;;11.18;9.68;;;;;;;27.70;54.48;97738.63;1713281;82;21045;-77
2021/07/10 09:08:27;;;;;;;10.63;9.25;;;;;;;27.76;54.25;97737.11;1727145;82;20942;-77
2021/07/10 09:11:13;;;;;;;11.15;8.93;;;;;;;27.86;54.26;97739.73;1739363;82;21068;-77
2021/07/10 09:13:48;;;;;;;10.18;9.10;;;;;;;27.90;54.10;97735.67;1713740;82;20973;-77
2021/07/10 09:16:34;;;;;;;11.12;8.80;;;;;;;27.98;54.22;97734.33;1712482;84;21013;-77
2021/07/10 09:19:10;;;;;;;9.88;8.98;;;;;;;28.02;53.80;97732.98;1712019;83;21063;-77
2021/07/10 09:21:51;;;;;;;15.40;8.68;;;;;;;28.08;53.70;97723.31;1712841;83;21481;-76
2021/07/10 09:24:34;;;;;;;11.33;8.13;;;;;;;28.17;53.40;97719.61;1712785;83;21454;-77
2021/07/10 09:27:06;;;;;;;9.33;8.40;;;;;;;28.20;52.25;97718.42;1712583;83;21486;-76
2021/07/10 09:29:48;;;;;;;11.40;8.33;;;;;;;28.27;52.38;97715.40;1714243;82;21065;-77
2021/07/10 09:32:22;;;;;;;10.40;8.78;;;;;;;28.38;52.36;97712.02;1722102;82;21094;-77
2021/07/10 09:34:53;;;;;;;12.05;9.25;;;;;;;28.48;52.41;97717.33;1677887;85;21582;-76
2021/07/10 09:37:24;;;;;;;12.47;9.38;;;;;;;28.54;52.24;97710.70;1676511;85;21037;-77
2021/07/10 09:40:00;;;;;;;10.13;8.43;;;;;;;28.63;52.30;97706.61;1702585;84;21043;-77
2021/07/10 09:42:40;;;;;;;13.50;8.28;;;;;;;28.73;51.93;97708.16;1660464;85;22219;-77
2021/07/10 09:45:16;;;;;;;9.90;8.63;;;;;;;28.82;51.50;97713.11;1727202;82;21108;-75
2021/07/10 09:47:43;;;;;;;12.10;8.65;;;;;;;28.90;51.56;97707.36;1717042;82;21038;-78
2021/07/10 09:50:18;;;;;;;9.90;8.98;;;;;;;28.97;50.91;97708.38;1732803;82;20974;-75
2021/07/10 09:52:44;;;;;;;10.60;8.28;;;;;;;29.07;51.05;97702.23;1711460;83;21068;-76
2021/07/10 09:55:15;;;;;;;10.82;9.83;;;;;;;29.22;50.71;97702.40;1706436;82;21001;-75
2021/07/10 09:57:44;;;;;;;23.98;21.37;;;;;;;29.31;49.37;97696.41;1728140;82;21009;-75
2021/07/10 10:00:15;;;;;;;11.50;10.30;;;;;;;29.40;50.07;97698.63;1696302;82;21022;-75
2021/07/10 10:02:51;;;;;;;10.13;8.40;;;;;;;29.54;50.22;97699.81;1722044;82;21036;-75
2021/07/10 10:05:21;;;;;;;11.33;8.35;;;;;;;29.67;49.24;97695.70;1718291;82;20999;-75
2021/07/10 10:07:57;;;;;;;10.90;8.60;;;;;;;29.72;49.30;97688.66;1722598;82;21012;-75
2021/07/10 10:10:37;;;;;;;10.18;9.18;;;;;;;29.83;49.11;97692.91;1726038;82;20979;-75
2021/07/10 10:13:10;;;;;;;13.35;8.98;;;;;;;29.90;49.33;97688.42;1716217;82;21613;-75
2021/07/10 10:15:49;;;;;;;11.78;9.15;;;;;;;29.99;49.39;97680.20;1717254;82;21112;-75
2021/07/10 10:18:23;;;;;;;9.58;8.65;;;;;;;30.15;49.16;97682.88;1664724;84;21031;-74
2021/07/10 10:20:52;;;;;;;9.33;8.50;;;;;;;30.15;48.87;97673.31;1658781;85;21027;-74
2021/07/10 10:23:21;;;;;;;9.88;8.88;;;;;;;30.27;48.64;97670.19;1714441;82;21002;-73
2021/07/10 10:25:50;;;;;;;9.78;8.55;;;;;;;30.42;48.15;97663.41;1712448;84;21579;-74
2021/07/10 10:28:21;;;;;;;11.00;8.95;;;;;;;30.51;47.33;97651.39;1712285;84;21019;-74
2021/07/10 10:30:55;;;;;;;10.93;8.60;;;;;;;30.63;47.69;97647.72;1712266;84;21086;-74
2021/07/10 10:33:25;;;;;;;10.38;8.08;;;;;;;30.68;47.69;97650.75;1736625;82;21021;-74
2021/07/10 10:35:55;;;;;;;16.67;14.98;;;;;;;30.81;47.48;97647.96;1739767;82;20989;-74
2021/07/10 10:38:24;;;;;;;9.53;8.48;;;;;;;30.90;46.95;97651.47;1706440;84;21025;-74
2021/07/10 10:40:53;;;;;;;12.37;9.65;;;;;;;30.97;46.69;97655.69;1741887;82;20997;-74
2021/07/10 10:43:23;;;;;;;11.28;10.20;;;;;;;31.14;46.63;97661.31;1735937;82;21405;-75
2021/07/10 10:45:49;;;;;;;10.98;8.83;;;;;;;31.33;46.66;97666.83;1721960;82;21464;-75
2021/07/10 10:48:35;;;;;;;9.30;8.05;;;;;;;31.48;46.37;97665.45;1713344;84;21445;-75
2021/07/10 10:51:01;;;;;;;9.03;8.20;;;;;;;31.60;45.34;97667.74;1713830;83;21003;-72
2021/07/10 10:53:28;;;;;;;9.25;7.95;;;;;;;31.80;45.21;97671.28;1721652;82;20995;-72
2021/07/10 10:55:54;;;;;;;8.85;7.95;;;;;;;31.79;44.72;97682.74;1713377;84;21032;-74
2021/07/10 10:58:29;;;;;;;8.53;7.45;;;;;;;31.79;44.41;97675.89;1713576;84;21429;-74
2021/07/10 11:01:08;;;;;;;8.40;7.55;;;;;;;31.89;44.41;97672.91;1713543;84;21055;-74
2021/07/10 11:03:41;;;;;;;11.75;8.38;;;;;;;32.05;44.11;97673.73;1719953;82;20922;-74
2021/07/10 11:06:30;;;;;;;10.60;7.80;;;;;;;32.23;44.04;97670.56;1716604;82;21040;-74
2021/07/10 11:08:58;;;;;;;8.05;7.33;;;;;;;32.62;43.29;97672.08;1711753;82;20959;-74
2021/07/10 11:11:28;;;;;;;8.50;7.72;;;;;;;32.45;42.55;97668.73;1714913;83;21454;-74
2021/07/10 11:14:10;;;;;;;9.50;7.45;;;;;;;32.32;42.88;97671.29;1731930;82;20945;-77
2021/07/10 11:17:01;;;;;;;8.28;7.20;;;;;;;32.09;43.24;97669.03;1713178;83;21040;-72
2021/07/10 11:19:49;;;;;;;8.18;7.37;;;;;;;31.97;43.41;97665.09;1714717;83;21434;-75
2021/07/10 11:22:55;;;;;;;9.30;8.18;;;;;;;31.85;43.31;97670.19;1721123;83;21020;-74
2021/07/10 11:25:50;;;;;;;8.28;7.50;;;;;;;31.63;43.03;97661.86;1721670;82;20980;-75
2021/07/10 11:28:20;;;;;;;8.20;7.08;;;;;;;31.59;43.40;97668.78;1721246;83;21525;-75
2021/07/10 11:30:50;;;;;;;8.73;7.47;;;;;;;31.65;43.82;97664.42;1720485;83;21458;-75
2021/07/10 11:33:37;;;;;;;8.65;7.33;;;;;;;31.79;43.77;97664.94;1727304;82;20961;-75